createdAt,value
2019-04-21T00:00:35.494Z,12.20
2019-04-21T00:03:11.699Z,12.10
2019-04-21T00:05:58.868Z,12.00
2019-04-21T00:08:33.554Z,11.90
2019-04-21T00:11:03.023Z,11.70
2019-04-21T00:13:25.387Z,11.60
2019-04-21T00:15:49.886Z,11.50
2019-04-21T00:18:44.635Z,11.40
2019-04-21T00:21:14.907Z,11.30
2019-04-21T00:23:56.196Z,11.20
2019-04-21T00:26:32.130Z,11.10
2019-04-21T00:29:03.721Z,11.10
2019-04-21T00:31:28.633Z,11.10
2019-04-21T00:33:47.753Z,11.10
2019-04-21T00:36:22.627Z,11.20
2019-04-21T00:39:18.614Z,11.10
2019-04-21T00:41:36.648Z,11.00
2019-04-21T00:44:00.824Z,10.90
2019-04-21T00:46:35.752Z,10.90
2019-04-21T00:49:06.004Z,10.80
2019-04-21T00:51:55.451Z,10.80
2019-04-21T00:54:29.515Z,10.90
2019-04-21T00:57:01.332Z,10.80
2019-04-21T00:59:25.945Z,10.70
2019-04-21T01:01:50.785Z,10.60
2019-04-21T01:04:26.354Z,10.70
2019-04-21T01:06:56.169Z,10.60
2019-04-21T01:09:23.709Z,10.60
2019-04-21T01:12:03.714Z,10.50
2019-04-21T01:14:36.915Z,10.50
2019-04-21T01:17:05.013Z,10.50
2019-04-21T01:19:26.937Z,10.50
2019-04-21T01:21:41.797Z,10.50
2019-04-21T01:24:19.047Z,10.50
2019-04-21T01:26:52.232Z,10.50
2019-04-21T01:29:37.434Z,10.50
2019-04-21T01:32:13.521Z,10.50
2019-04-21T01:34:39.110Z,10.60
2019-04-21T01:37:06.332Z,10.60
2019-04-21T01:39:42.685Z,10.50
2019-04-21T01:42:11.259Z,10.50
2019-04-21T01:44:43.049Z,10.40
2019-04-21T01:47:08.371Z,10.40
2019-04-21T01:49:34.927Z,10.30
2019-04-21T01:52:27.835Z,10.30
2019-04-21T01:55:10.313Z,10.20
2019-04-21T01:57:49.484Z,10.20
2019-04-21T02:00:31.518Z,10.20
2019-04-21T02:03:10.803Z,10.10
2019-04-21T02:05:39.260Z,10.10
2019-04-21T02:08:07.447Z,10.00
2019-04-21T02:10:41.490Z,9.90
2019-04-21T02:13:09.111Z,9.90
2019-04-21T02:15:42.336Z,10.00
2019-04-21T02:18:13.241Z,9.90
2019-04-21T02:20:31.765Z,9.90
2019-04-21T02:25:47.664Z,9.90
2019-04-21T02:28:24.007Z,9.70
2019-04-21T02:31:06.160Z,9.60
2019-04-21T02:36:15.537Z,9.40
2019-04-21T02:38:39.794Z,9.30
2019-04-21T02:40:57.952Z,9.30
2019-04-21T02:46:04.413Z,9.20
2019-04-21T02:48:38.882Z,9.20
2019-04-21T02:54:06.840Z,9.00
2019-04-21T02:56:14.548Z,9.10
2019-04-21T02:58:54.160Z,9.00
2019-04-21T03:01:46.323Z,9.00
2019-04-21T03:04:18.550Z,9.00
2019-04-21T03:07:13.305Z,9.00
2019-04-21T03:09:39.179Z,8.90
2019-04-21T03:12:11.177Z,8.70
2019-04-21T03:14:56.183Z,8.80
2019-04-21T03:17:14.282Z,8.90
2019-04-21T03:19:55.532Z,8.90
2019-04-21T03:25:23.462Z,8.90
2019-04-21T03:27:40.155Z,8.70
2019-04-21T03:29:55.472Z,8.70
2019-04-21T03:32:47.998Z,8.70
2019-04-21T03:37:25.191Z,8.60
2019-04-21T03:40:06.786Z,8.60
2019-04-21T03:42:36.793Z,8.50
2019-04-21T03:44:52.065Z,8.50
2019-04-21T03:50:14.667Z,8.30
2019-04-21T03:55:51.479Z,8.40
2019-04-21T04:01:02.788Z,8.20
2019-04-21T04:14:07.614Z,8.00
2019-04-21T04:19:01.544Z,7.90
2019-04-21T04:21:37.556Z,7.90
2019-04-21T04:24:09.088Z,8.00
2019-04-21T04:26:41.048Z,7.90
2019-04-21T04:29:12.142Z,7.90
2019-04-21T04:34:12.784Z,8.00
2019-04-21T04:39:45.659Z,8.00
2019-04-21T04:49:47.954Z,9.30
2019-04-21T04:57:42.032Z,10.10
2019-04-21T05:02:30.447Z,10.50
2019-04-21T05:04:59.265Z,11.00
2019-04-21T05:07:27.439Z,11.10
2019-04-21T05:12:17.569Z,11.30
2019-04-21T05:14:57.067Z,11.80
2019-04-21T05:17:28.817Z,12.00
2019-04-21T05:24:44.006Z,12.60
2019-04-21T05:27:29.486Z,12.70
2019-04-21T05:30:08.386Z,12.50
2019-04-21T05:33:03.641Z,12.60
2019-04-21T05:36:09.151Z,12.70
2019-04-21T05:38:57.138Z,12.20
2019-04-21T05:41:20.751Z,12.30
2019-04-21T05:44:03.828Z,12.40
2019-04-21T05:46:32.547Z,12.70
2019-04-21T05:49:02.712Z,12.80
2019-04-21T05:51:37.227Z,12.90
2019-04-21T05:54:21.380Z,12.90
2019-04-21T05:56:43.835Z,13.00
2019-04-21T05:59:15.200Z,12.80
2019-04-21T06:01:48.581Z,12.70
2019-04-21T06:04:34.159Z,13.30
2019-04-21T06:06:48.042Z,12.90
2019-04-21T06:09:19.043Z,13.00
2019-04-21T06:11:51.230Z,13.40
2019-04-21T06:14:23.114Z,13.60
2019-04-21T06:16:55.586Z,13.50
2019-04-21T06:19:31.218Z,13.60
2019-04-21T06:21:51.184Z,13.70
2019-04-21T06:24:21.858Z,13.40
2019-04-21T06:29:28.556Z,13.00
2019-04-21T06:34:40.784Z,12.80
2019-04-21T06:40:15.699Z,12.70
2019-04-21T06:42:32.476Z,13.10
2019-04-21T06:45:08.779Z,13.00
2019-04-21T06:50:07.670Z,13.20
2019-04-21T06:55:13.880Z,13.80
2019-04-21T06:57:39.975Z,14.00
2019-04-21T07:00:11.772Z,14.30
2019-04-21T07:02:54.896Z,14.40
2019-04-21T07:05:15.438Z,14.50
2019-04-21T07:08:08.836Z,14.60
2019-04-21T07:10:14.981Z,14.90
2019-04-21T07:12:48.284Z,15.00
2019-04-21T07:15:22.318Z,15.00
2019-04-21T07:17:53.600Z,15.50
2019-04-21T07:20:18.338Z,15.50
2019-04-21T07:22:59.506Z,15.40
2019-04-21T07:25:22.635Z,15.50
2019-04-21T07:27:52.751Z,15.40
2019-04-21T07:30:31.692Z,15.00
2019-04-21T07:33:05.575Z,14.70
2019-04-21T07:35:28.525Z,14.90
2019-04-21T07:37:57.671Z,15.10
2019-04-21T07:40:24.704Z,15.00
2019-04-21T07:43:01.318Z,15.30
2019-04-21T07:45:30.227Z,15.30
2019-04-21T07:48:12.705Z,15.40
2019-04-21T07:51:07.537Z,15.40
2019-04-21T07:53:45.654Z,15.50
2019-04-21T07:55:53.291Z,15.70
2019-04-21T07:58:47.683Z,15.70
2019-04-21T08:01:12.410Z,15.90
2019-04-21T08:03:46.583Z,16.00
2019-04-21T08:06:12.780Z,16.20
2019-04-21T08:08:49.424Z,16.20
2019-04-21T08:11:16.672Z,16.50
2019-04-21T08:14:03.506Z,16.50
2019-04-21T08:16:28.638Z,16.70
2019-04-21T08:18:55.009Z,16.80
2019-04-21T08:21:23.614Z,17.00
2019-04-21T08:23:54.166Z,17.00
2019-04-21T08:26:33.796Z,17.20
2019-04-21T08:29:04.136Z,17.30
2019-04-21T08:31:34.360Z,17.50
2019-04-21T08:34:01.716Z,17.50
2019-04-21T08:36:30.936Z,17.70
2019-04-21T08:39:03.234Z,17.70
2019-04-21T08:41:37.432Z,17.80
2019-04-21T08:44:16.420Z,17.90
2019-04-21T08:46:38.738Z,18.10
2019-04-21T08:49:10.910Z,18.20
2019-04-21T08:51:43.625Z,18.30
2019-04-21T08:54:17.059Z,18.30
2019-04-21T08:57:06.156Z,18.30
2019-04-21T08:59:51.813Z,18.50
2019-04-21T09:02:34.013Z,18.70
2019-04-21T09:04:59.214Z,18.60
2019-04-21T09:07:35.905Z,18.90
2019-04-21T09:09:57.540Z,18.90
2019-04-21T09:12:33.146Z,18.90
2019-04-21T09:15:01.751Z,19.00
2019-04-21T09:17:28.561Z,19.20
2019-04-21T09:20:13.933Z,19.30
2019-04-21T09:22:37.836Z,19.30
2019-04-21T09:25:01.642Z,19.40
2019-04-21T09:27:36.660Z,19.50
2019-04-21T09:29:55.692Z,19.50
2019-04-21T09:32:26.835Z,19.70
2019-04-21T09:34:53.081Z,19.80
2019-04-21T09:37:33.015Z,19.70
2019-04-21T09:39:57.137Z,19.90
2019-04-21T09:42:33.268Z,20.10
2019-04-21T09:45:00.671Z,20.20
2019-04-21T09:47:36.529Z,20.20
2019-04-21T09:49:58.597Z,20.30
2019-04-21T09:52:37.542Z,20.50
2019-04-21T09:55:06.962Z,20.20
2019-04-21T09:57:41.617Z,20.30
2019-04-21T10:00:11.954Z,20.70
2019-04-21T10:02:42.607Z,21.00
2019-04-21T10:05:07.768Z,21.00
2019-04-21T10:07:41.718Z,21.00
2019-04-21T10:10:10.481Z,21.10
2019-04-21T10:12:41.113Z,21.30
2019-04-21T10:15:10.776Z,21.30
2019-04-21T10:17:47.441Z,21.50
2019-04-21T10:20:17.216Z,21.40
2019-04-21T10:22:46.869Z,21.50
2019-04-21T10:25:16.770Z,21.90
2019-04-21T10:27:47.225Z,22.20
2019-04-21T10:30:17.119Z,22.40
2019-04-21T10:32:46.572Z,22.40
2019-04-21T10:35:20.669Z,22.40
2019-04-21T10:37:58.181Z,22.50
2019-04-21T10:40:19.363Z,22.50
2019-04-21T10:42:49.965Z,22.40
2019-04-21T10:45:21.087Z,22.50
2019-04-21T10:47:50.601Z,22.70
2019-04-21T10:50:20.453Z,22.90
2019-04-21T10:53:05.429Z,22.60
2019-04-21T10:55:48.640Z,22.50
2019-04-21T10:58:11.904Z,22.60
2019-04-21T11:00:42.281Z,22.90
2019-04-21T11:03:35.250Z,22.70
2019-04-21T11:06:06.439Z,22.80
2019-04-21T11:08:41.673Z,23.00
2019-04-21T11:11:07.980Z,23.00
2019-04-21T11:13:38.875Z,23.20
2019-04-21T11:16:08.858Z,23.20
2019-04-21T11:18:39.790Z,23.00
2019-04-21T11:21:09.377Z,23.30
2019-04-21T11:23:40.346Z,23.20
2019-04-21T11:26:10.029Z,23.10
2019-04-21T11:28:40.811Z,23.30
2019-04-21T11:31:11.107Z,23.30
2019-04-21T11:33:40.562Z,23.30
2019-04-21T11:36:11.149Z,23.30
2019-04-21T11:39:16.607Z,23.40
2019-04-21T11:41:34.037Z,23.60
2019-04-21T11:44:04.986Z,23.60
2019-04-21T11:46:36.166Z,23.40
2019-04-21T11:49:06.341Z,23.30
2019-04-21T11:51:37.301Z,23.60
2019-04-21T11:54:06.909Z,23.70
2019-04-21T11:56:36.990Z,23.70
2019-04-21T11:59:07.850Z,23.80
2019-04-21T12:01:37.440Z,23.80
2019-04-21T12:04:07.608Z,23.70
2019-04-21T12:06:43.072Z,23.60
2019-04-21T12:09:09.942Z,23.70
2019-04-21T12:11:39.528Z,23.70
2019-04-21T12:14:09.970Z,23.90
2019-04-21T12:16:39.447Z,23.90
2019-04-21T12:19:09.190Z,24.00
2019-04-21T12:21:49.217Z,23.70
2019-04-21T12:24:11.041Z,23.80
2019-04-21T12:26:40.557Z,23.80
2019-04-21T12:29:10.082Z,23.80
2019-04-21T12:31:53.898Z,24.10
2019-04-21T12:34:23.755Z,23.70
2019-04-21T12:36:54.885Z,23.50
2019-04-21T12:39:25.082Z,23.60
2019-04-21T12:41:54.488Z,23.90
2019-04-21T12:44:24.612Z,23.80
2019-04-21T12:46:54.126Z,23.50
2019-04-21T12:49:23.559Z,23.70
2019-04-21T12:51:53.519Z,23.90
2019-04-21T12:54:23.808Z,24.00
2019-04-21T12:56:53.781Z,23.70
2019-04-21T12:59:24.488Z,23.90
2019-04-21T13:01:54.848Z,24.10
2019-04-21T13:04:24.405Z,24.20
2019-04-21T13:06:55.210Z,24.20
2019-04-21T13:09:27.539Z,24.30
2019-04-21T13:11:57.199Z,24.20
2019-04-21T13:14:26.673Z,24.40
2019-04-21T13:16:57.335Z,24.10
2019-04-21T13:19:27.361Z,24.30
2019-04-21T13:21:58.175Z,24.30
2019-04-21T13:24:27.653Z,24.10
2019-04-21T13:26:59.540Z,24.10
2019-04-21T13:29:28.526Z,24.10
2019-04-21T13:31:58.541Z,24.20
2019-04-21T13:34:28.358Z,24.00
2019-04-21T13:36:59.064Z,24.10
2019-04-21T13:40:16.424Z,24.10
2019-04-21T13:42:31.415Z,24.30
2019-04-21T13:45:03.009Z,24.10
2019-04-21T13:47:34.542Z,24.10
2019-04-21T13:50:06.345Z,24.20
2019-04-21T13:52:36.537Z,24.50
2019-04-21T13:55:07.601Z,24.30
2019-04-21T13:57:38.711Z,24.40
2019-04-21T14:00:08.943Z,24.30
2019-04-21T14:02:38.731Z,24.00
2019-04-21T14:05:11.540Z,24.20
2019-04-21T14:07:39.951Z,24.20
2019-04-21T14:10:12.238Z,24.20
2019-04-21T14:12:42.538Z,24.30
2019-04-21T14:15:12.551Z,24.20
2019-04-21T14:17:42.552Z,24.20
2019-04-21T14:20:13.208Z,24.20
2019-04-21T14:22:44.133Z,24.30
2019-04-21T14:25:15.188Z,24.20
2019-04-21T14:27:47.342Z,24.40
2019-04-21T14:30:16.525Z,24.30
2019-04-21T14:32:46.079Z,24.50
2019-04-21T14:35:16.802Z,24.60
2019-04-21T14:37:46.684Z,24.30
2019-04-21T14:40:23.560Z,24.30
2019-04-21T14:42:48.089Z,24.10
2019-04-21T14:45:48.504Z,24.30
2019-04-21T14:48:36.932Z,24.40
2019-04-21T14:51:23.072Z,24.30
2019-04-21T14:54:10.154Z,24.50
2019-04-21T14:56:39.636Z,24.40
2019-04-21T14:59:09.112Z,24.30
2019-04-21T15:01:39.978Z,24.10
2019-04-21T15:04:09.868Z,24.30
2019-04-21T15:06:39.410Z,24.50
2019-04-21T15:09:09.503Z,24.40
2019-04-21T15:11:40.113Z,24.10
2019-04-21T15:14:09.595Z,24.10
2019-04-21T15:16:39.035Z,24.10
2019-04-21T15:19:08.710Z,24.40
2019-04-21T15:21:38.499Z,24.20
2019-04-21T15:24:08.680Z,24.40
2019-04-21T15:26:38.184Z,24.30
2019-04-21T15:29:08.841Z,24.50
2019-04-21T15:31:41.769Z,24.20
2019-04-21T15:34:10.916Z,24.20
2019-04-21T15:36:41.784Z,24.00
2019-04-21T15:39:11.905Z,24.10
2019-04-21T15:41:42.742Z,24.30
2019-04-21T15:44:12.487Z,24.30
2019-04-21T15:46:41.957Z,24.40
2019-04-21T15:49:11.417Z,24.40
2019-04-21T15:51:42.157Z,24.30
2019-04-21T15:54:11.611Z,24.30
2019-04-21T15:56:56.425Z,24.20
2019-04-21T15:59:44.321Z,24.30
2019-04-21T16:02:32.768Z,24.20
2019-04-21T16:05:02.565Z,24.10
2019-04-21T16:07:32.154Z,23.80
2019-04-21T16:10:04.809Z,23.90
2019-04-21T16:12:33.899Z,23.90
2019-04-21T16:15:04.797Z,24.00
2019-04-21T16:17:35.230Z,24.00
2019-04-21T16:20:06.094Z,23.90
2019-04-21T16:22:36.825Z,23.80
2019-04-21T16:25:06.710Z,23.90
2019-04-21T16:27:37.225Z,23.90
2019-04-21T16:30:07.906Z,23.80
2019-04-21T16:32:38.384Z,23.80
2019-04-21T16:35:11.151Z,23.80
2019-04-21T16:37:39.579Z,23.90
2019-04-21T16:40:09.600Z,23.80
2019-04-21T16:42:40.284Z,23.80
2019-04-21T16:45:10.645Z,23.90
2019-04-21T16:47:40.076Z,23.80
2019-04-21T16:50:10.170Z,24.10
2019-04-21T16:52:45.830Z,23.90
2019-04-21T16:55:35.241Z,23.90
2019-04-21T16:58:26.595Z,23.90
2019-04-21T17:01:04.480Z,23.70
2019-04-21T17:03:30.660Z,23.50
2019-04-21T17:06:00.508Z,23.60
2019-04-21T17:08:31.728Z,23.70
2019-04-21T17:11:10.776Z,23.70
2019-04-21T17:13:33.586Z,23.60
2019-04-21T17:16:29.614Z,23.40
2019-04-21T17:18:47.562Z,23.40
2019-04-21T17:21:07.073Z,23.40
2019-04-21T17:23:37.678Z,23.30
2019-04-21T17:26:07.118Z,23.00
2019-04-21T17:28:36.533Z,22.80
2019-04-21T17:31:06.548Z,22.70
2019-04-21T17:33:37.110Z,22.50
2019-04-21T17:36:07.166Z,22.40
2019-04-21T17:38:37.016Z,22.30
2019-04-21T17:41:19.930Z,22.20
2019-04-21T17:43:39.556Z,22.10
2019-04-21T17:46:09.123Z,22.10
2019-04-21T17:48:38.773Z,22.00
2019-04-21T17:51:23.392Z,21.90
2019-04-21T17:54:02.411Z,21.80
2019-04-21T17:57:00.470Z,21.70
2019-04-21T17:59:28.171Z,21.70
2019-04-21T18:01:54.603Z,21.60
2019-04-21T18:04:24.984Z,21.60
2019-04-21T18:07:49.183Z,21.40
2019-04-21T18:10:10.009Z,21.30
2019-04-21T18:12:33.739Z,21.20
2019-04-21T18:15:00.065Z,21.10
2019-04-21T18:17:20.745Z,21.00
2019-04-21T18:19:51.762Z,20.80
2019-04-21T18:22:47.982Z,20.70
2019-04-21T18:25:32.789Z,20.60
2019-04-21T18:27:52.321Z,20.60
2019-04-21T18:30:46.811Z,20.40
2019-04-21T18:33:23.517Z,20.30
2019-04-21T18:36:21.283Z,20.10
2019-04-21T18:39:14.452Z,20.10
2019-04-21T18:41:34.464Z,20.20
2019-04-21T18:44:32.143Z,20.00
2019-04-21T18:47:12.152Z,19.90
2019-04-21T18:49:44.383Z,19.90
2019-04-21T18:52:32.130Z,19.80
2019-04-21T18:55:05.330Z,19.70
2019-04-21T18:57:33.343Z,19.50
2019-04-21T18:59:57.266Z,19.40
2019-04-21T19:02:28.202Z,19.30
2019-04-21T19:05:03.107Z,19.20
2019-04-21T19:07:48.366Z,19.30
2019-04-21T19:10:33.921Z,19.10
2019-04-21T19:15:20.106Z,19.00
2019-04-21T19:18:28.294Z,19.00
2019-04-21T19:20:25.722Z,18.80
2019-04-21T19:22:52.255Z,19.00
2019-04-21T19:25:25.349Z,18.80
2019-04-21T19:27:55.173Z,18.90
2019-04-21T19:30:36.638Z,18.70
2019-04-21T19:33:01.086Z,18.70
2019-04-21T19:35:14.921Z,18.70
2019-04-21T19:37:55.171Z,18.70
2019-04-21T19:40:39.133Z,18.80
2019-04-21T19:42:57.792Z,18.70
2019-04-21T19:45:35.344Z,18.70
2019-04-21T19:48:09.417Z,18.50
2019-04-21T19:50:40.506Z,18.50
2019-04-21T19:53:03.421Z,18.50
2019-04-21T19:55:24.406Z,18.30
2019-04-21T19:57:54.769Z,18.20
2019-04-21T20:00:24.587Z,18.10
2019-04-21T20:02:54.576Z,17.90
2019-04-21T20:05:34.969Z,17.90
2019-04-21T20:08:11.623Z,17.80
2019-04-21T20:10:48.668Z,17.80
2019-04-21T20:13:26.257Z,17.70
2019-04-21T20:15:52.475Z,17.60
2019-04-21T20:18:13.238Z,17.60
2019-04-21T20:20:31.198Z,17.60
2019-04-21T20:23:01.277Z,17.30
2019-04-21T20:25:34.659Z,17.20
2019-04-21T20:28:09.654Z,17.10
2019-04-21T20:30:52.822Z,17.00
2019-04-21T20:33:42.909Z,16.90
2019-04-21T20:35:59.325Z,16.90
2019-04-21T20:38:19.262Z,17.00
2019-04-21T20:40:45.427Z,16.90
2019-04-21T20:43:31.057Z,17.00
2019-04-21T20:46:00.430Z,16.90
2019-04-21T20:48:21.061Z,16.90
2019-04-21T20:51:03.563Z,16.80
2019-04-21T20:53:33.033Z,16.70
2019-04-21T20:55:58.168Z,16.60
2019-04-21T20:58:34.580Z,16.50
2019-04-21T21:01:22.273Z,16.40
2019-04-21T21:03:37.771Z,16.30
2019-04-21T21:05:59.860Z,16.20
2019-04-21T21:08:42.145Z,16.10
2019-04-21T21:11:00.241Z,16.00
2019-04-21T21:13:42.605Z,15.80
2019-04-21T21:21:15.154Z,15.60
2019-04-21T21:23:49.784Z,15.60
2019-04-21T21:26:23.402Z,15.50
2019-04-21T21:28:46.073Z,15.60
2019-04-21T21:31:17.704Z,15.80
2019-04-21T21:33:59.263Z,16.00
2019-04-21T21:36:20.854Z,16.00
2019-04-21T21:38:55.977Z,16.00
2019-04-21T21:41:16.599Z,15.90
2019-04-21T21:43:39.218Z,15.90
2019-04-21T21:46:24.903Z,15.90
2019-04-21T21:48:51.654Z,15.80
2019-04-21T21:51:20.543Z,15.70
2019-04-21T21:53:42.665Z,15.50
2019-04-21T21:56:12.676Z,15.30
2019-04-21T21:58:44.013Z,15.10
2019-04-21T22:01:16.724Z,15.00
2019-04-21T22:03:47.303Z,14.80
2019-04-21T22:06:21.404Z,14.90
2019-04-21T22:08:48.543Z,14.90
2019-04-21T22:11:18.091Z,14.90
2019-04-21T22:13:56.689Z,15.00
2019-04-21T22:16:21.229Z,15.00
2019-04-21T22:19:08.007Z,14.90
2019-04-21T22:21:42.607Z,14.90
2019-04-21T22:24:02.799Z,14.80
2019-04-21T22:26:25.090Z,14.60
2019-04-21T22:28:55.851Z,14.60
2019-04-21T22:31:29.991Z,14.40
2019-04-21T22:34:02.232Z,14.30
2019-04-21T22:36:42.473Z,14.20
2019-04-21T22:39:16.180Z,14.10
2019-04-21T22:41:36.313Z,14.00
2019-04-21T22:44:01.080Z,13.90
2019-04-21T22:46:30.698Z,13.80
2019-04-21T22:49:06.809Z,13.60
2019-04-21T22:51:37.439Z,13.60
2019-04-21T22:54:02.248Z,13.60
2019-04-21T22:56:33.763Z,13.50
2019-04-21T22:59:08.519Z,13.50
2019-04-21T23:01:40.166Z,13.30
2019-04-21T23:04:06.719Z,13.20
2019-04-21T23:06:37.921Z,13.20
2019-04-21T23:09:10.984Z,13.00
2019-04-21T23:11:45.633Z,12.90
2019-04-21T23:14:14.948Z,12.80
2019-04-21T23:16:45.596Z,12.90
2019-04-21T23:19:29.275Z,12.80
2019-04-21T23:22:02.457Z,12.80
2019-04-21T23:24:39.936Z,12.80
2019-04-21T23:26:59.824Z,12.80
2019-04-21T23:29:48.233Z,12.70
2019-04-21T23:32:02.996Z,12.50
2019-04-21T23:34:26.568Z,12.40
2019-04-21T23:37:00.239Z,12.40
2019-04-21T23:39:28.362Z,12.20
2019-04-21T23:41:55.962Z,12.20
2019-04-21T23:44:25.941Z,12.10
2019-04-21T23:47:00.799Z,11.90
2019-04-21T23:49:35.358Z,11.80
2019-04-21T23:52:03.078Z,11.90
2019-04-21T23:54:29.256Z,11.80
2019-04-21T23:57:05.048Z,11.80
2019-04-21T23:59:32.434Z,11.80
